6AR4 weather

Baptist Health Medical Center-Heber Spring Heliport
Heber Springs, Arkansas, United States

Public forecast

Using degrees Fahrenheit for public forecast. Weather courtesy of forecast.io.

METAR (pilot weather report)

Closest report is Batesville Regional Airport, 21.7 nm (40.1 km) NE. Retrieved 2019/07/16 06:56 UTC (45 minutes ago):

KBVX 160656Z AUTO 20006KT 10SM -RA OVC010 23/22 A2990 RMK AO2 CIG 007V014 SLP122 P0005 T02280222

TAF (pilot weather forecast)

Closest forecast is Little Rock Air Force Base, 36.1 nm (66.8 km) SSW. Retrieved 2019/07/16 07:00 UTC (41 minutes ago):

TAF KLRF 160700Z 1607/1713 VRB06KT 9999 BKN020 OVC050 QNH2991INS BECMG 1608/1609 VRB06KT 9999 OVC014 QNH2991INS BECMG 1609/1610 20009KT 8000 -SHRA OVC010 QNH2992INS TEMPO 1611/1615 VRB20G25KT 8000 -TSRA BKN015CB OVC020 BECMG 1618/1619 21010G15KT 9999 NSW SCT015 BKN040 QNH2989INS BECMG 1700/1701 21012KT 9999 SCT050 QNH2989INS BECMG 1706/1707 21006KT 9999 SCT020 WS020/23035KT QNH2993INS TX30/1623Z TN23/1607Z